sensor_id;sensor_type;location;lat;lon;timestamp;temperature;humidity
10171;DHT22;5127;50.922;6.988;2024-01-30T00:01:02;10.50;75.70
10171;DHT22;5127;50.922;6.988;2024-01-30T00:03:30;10.50;75.70
10171;DHT22;5127;50.922;6.988;2024-01-30T00:05:57;10.50;75.80
10171;DHT22;5127;50.922;6.988;2024-01-30T00:08:26;10.50;75.80
10171;DHT22;5127;50.922;6.988;2024-01-30T00:10:53;10.50;75.80
10171;DHT22;5127;50.922;6.988;2024-01-30T00:13:20;10.50;75.90
10171;DHT22;5127;50.922;6.988;2024-01-30T00:15:48;10.40;75.80
10171;DHT22;5127;50.922;6.988;2024-01-30T00:18:16;10.40;75.80
10171;DHT22;5127;50.922;6.988;2024-01-30T00:20:44;10.40;75.90
10171;DHT22;5127;50.922;6.988;2024-01-30T00:23:12;10.40;75.90
10171;DHT22;5127;50.922;6.988;2024-01-30T00:25:43;10.40;76.00
10171;DHT22;5127;50.922;6.988;2024-01-30T00:28:10;10.30;75.80
10171;DHT22;5127;50.922;6.988;2024-01-30T00:30:38;10.30;75.90
10171;DHT22;5127;50.922;6.988;2024-01-30T00:33:05;10.30;75.90
10171;DHT22;5127;50.922;6.988;2024-01-30T00:35:32;10.30;76.00
10171;DHT22;5127;50.922;6.988;2024-01-30T00:37:59;10.30;76.00
10171;DHT22;5127;50.922;6.988;2024-01-30T00:40:28;10.20;76.00
10171;DHT22;5127;50.922;6.988;2024-01-30T00:42:57;10.20;76.00
10171;DHT22;5127;50.922;6.988;2024-01-30T00:45:24;10.20;76.00
10171;DHT22;5127;50.922;6.988;2024-01-30T00:47:51;10.20;76.10
10171;DHT22;5127;50.922;6.988;2024-01-30T00:50:19;10.20;76.10
10171;DHT22;5127;50.922;6.988;2024-01-30T00:52:46;10.20;76.10
10171;DHT22;5127;50.922;6.988;2024-01-30T00:55:13;10.20;76.20
10171;DHT22;5127;50.922;6.988;2024-01-30T00:57:43;10.20;76.30
10171;DHT22;5127;50.922;6.988;2024-01-30T01:00:13;10.10;76.20
10171;DHT22;5127;50.922;6.988;2024-01-30T01:02:44;10.10;76.20
10171;DHT22;5127;50.922;6.988;2024-01-30T01:05:11;10.10;76.30
10171;DHT22;5127;50.922;6.988;2024-01-30T01:07:38;10.10;76.30
10171;DHT22;5127;50.922;6.988;2024-01-30T01:10:08;10.10;76.30
10171;DHT22;5127;50.922;6.988;2024-01-30T01:12:37;10.10;76.40
10171;DHT22;5127;50.922;6.988;2024-01-30T01:15:05;10.10;76.40
10171;DHT22;5127;50.922;6.988;2024-01-30T01:17:36;10.10;76.40
10171;DHT22;5127;50.922;6.988;2024-01-30T01:20:05;10.10;76.40
10171;DHT22;5127;50.922;6.988;2024-01-30T01:22:33;10.10;76.50
10171;DHT22;5127;50.922;6.988;2024-01-30T01:25:01;10.10;76.60
10171;DHT22;5127;50.922;6.988;2024-01-30T01:27:28;10.10;76.60
10171;DHT22;5127;50.922;6.988;2024-01-30T01:29:56;10.10;76.70
10171;DHT22;5127;50.922;6.988;2024-01-30T01:32:23;10.10;76.70
10171;DHT22;5127;50.922;6.988;2024-01-30T01:34:51;10.10;76.70
10171;DHT22;5127;50.922;6.988;2024-01-30T01:37:19;10.10;76.80
10171;DHT22;5127;50.922;6.988;2024-01-30T01:39:48;10.10;76.80
10171;DHT22;5127;50.922;6.988;2024-01-30T01:42:16;10.10;76.90
10171;DHT22;5127;50.922;6.988;2024-01-30T01:44:43;10.10;77.00
10171;DHT22;5127;50.922;6.988;2024-01-30T01:47:11;10.10;77.00
10171;DHT22;5127;50.922;6.988;2024-01-30T01:49:38;10.10;77.00
10171;DHT22;5127;50.922;6.988;2024-01-30T01:52:07;10.10;77.00
10171;DHT22;5127;50.922;6.988;2024-01-30T01:54:34;10.10;77.00
10171;DHT22;5127;50.922;6.988;2024-01-30T01:57:03;10.20;77.00
10171;DHT22;5127;50.922;6.988;2024-01-30T01:59:30;10.20;77.00
10171;DHT22;5127;50.922;6.988;2024-01-30T02:01:58;10.20;77.00
10171;DHT22;5127;50.922;6.988;2024-01-30T02:04:25;10.20;77.00
10171;DHT22;5127;50.922;6.988;2024-01-30T02:06:53;10.20;77.10
10171;DHT22;5127;50.922;6.988;2024-01-30T02:09:21;10.20;77.10
10171;DHT22;5127;50.922;6.988;2024-01-30T02:11:49;10.20;77.00
10171;DHT22;5127;50.922;6.988;2024-01-30T02:14:16;10.20;77.10
10171;DHT22;5127;50.922;6.988;2024-01-30T02:16:43;10.20;77.10
10171;DHT22;5127;50.922;6.988;2024-01-30T02:19:10;10.20;77.10
10171;DHT22;5127;50.922;6.988;2024-01-30T02:21:39;10.20;77.20
10171;DHT22;5127;50.922;6.988;2024-01-30T02:24:06;10.20;77.10
10171;DHT22;5127;50.922;6.988;2024-01-30T02:26:33;10.30;77.30
10171;DHT22;5127;50.922;6.988;2024-01-30T02:29:01;10.30;77.30
10171;DHT22;5127;50.922;6.988;2024-01-30T02:31:28;10.30;78.00
10171;DHT22;5127;50.922;6.988;2024-01-30T02:33:55;10.30;77.30
10171;DHT22;5127;50.922;6.988;2024-01-30T02:36:22;10.30;77.20
10171;DHT22;5127;50.922;6.988;2024-01-30T02:38:51;10.30;77.20
10171;DHT22;5127;50.922;6.988;2024-01-30T02:41:18;10.30;77.20
10171;DHT22;5127;50.922;6.988;2024-01-30T02:43:45;10.30;77.20
10171;DHT22;5127;50.922;6.988;2024-01-30T02:46:13;10.30;77.10
10171;DHT22;5127;50.922;6.988;2024-01-30T02:48:40;10.30;77.20
10171;DHT22;5127;50.922;6.988;2024-01-30T02:51:07;10.30;77.20
10171;DHT22;5127;50.922;6.988;2024-01-30T02:53:34;10.40;77.30
10171;DHT22;5127;50.922;6.988;2024-01-30T02:56:04;10.30;77.20
10171;DHT22;5127;50.922;6.988;2024-01-30T02:58:31;10.40;77.20
10171;DHT22;5127;50.922;6.988;2024-01-30T03:00:59;10.40;77.30
10171;DHT22;5127;50.922;6.988;2024-01-30T03:03:26;10.40;77.30
10171;DHT22;5127;50.922;6.988;2024-01-30T03:05:53;10.40;77.30
10171;DHT22;5127;50.922;6.988;2024-01-30T03:08:21;10.40;77.40
10171;DHT22;5127;50.922;6.988;2024-01-30T03:10:48;10.40;77.40
10171;DHT22;5127;50.922;6.988;2024-01-30T03:13:17;10.40;77.40
10171;DHT22;5127;50.922;6.988;2024-01-30T03:15:44;10.40;77.30
10171;DHT22;5127;50.922;6.988;2024-01-30T03:18:11;10.40;77.40
10171;DHT22;5127;50.922;6.988;2024-01-30T03:20:39;10.40;77.40
10171;DHT22;5127;50.922;6.988;2024-01-30T03:23:06;10.40;77.40
10171;DHT22;5127;50.922;6.988;2024-01-30T03:25:33;10.40;77.40
10171;DHT22;5127;50.922;6.988;2024-01-30T03:28:00;10.40;77.40
10171;DHT22;5127;50.922;6.988;2024-01-30T03:30:29;10.40;77.40
10171;DHT22;5127;50.922;6.988;2024-01-30T03:32:56;10.40;77.30
10171;DHT22;5127;50.922;6.988;2024-01-30T03:35:23;10.40;77.20
10171;DHT22;5127;50.922;6.988;2024-01-30T03:37:51;10.40;77.20
10171;DHT22;5127;50.922;6.988;2024-01-30T03:40:18;10.40;77.20
10171;DHT22;5127;50.922;6.988;2024-01-30T03:42:45;10.40;77.20
10171;DHT22;5127;50.922;6.988;2024-01-30T03:45:12;10.40;77.30
10171;DHT22;5127;50.922;6.988;2024-01-30T03:47:43;10.40;77.40
10171;DHT22;5127;50.922;6.988;2024-01-30T03:50:11;10.40;77.20
10171;DHT22;5127;50.922;6.988;2024-01-30T03:52:39;10.40;77.40
10171;DHT22;5127;50.922;6.988;2024-01-30T03:55:06;10.40;77.40
10171;DHT22;5127;50.922;6.988;2024-01-30T03:57:33;10.40;77.40
10171;DHT22;5127;50.922;6.988;2024-01-30T04:00:01;10.40;77.50
10171;DHT22;5127;50.922;6.988;2024-01-30T04:02:38;10.40;77.50
10171;DHT22;5127;50.922;6.988;2024-01-30T04:05:07;10.40;77.50
10171;DHT22;5127;50.922;6.988;2024-01-30T04:07:35;10.40;77.50
10171;DHT22;5127;50.922;6.988;2024-01-30T04:10:02;10.40;77.60
10171;DHT22;5127;50.922;6.988;2024-01-30T04:12:31;10.40;77.60
10171;DHT22;5127;50.922;6.988;2024-01-30T04:14:58;10.40;77.60
10171;DHT22;5127;50.922;6.988;2024-01-30T04:17:25;10.40;77.60
10171;DHT22;5127;50.922;6.988;2024-01-30T04:19:55;10.40;77.60
10171;DHT22;5127;50.922;6.988;2024-01-30T04:22:23;10.40;77.60
10171;DHT22;5127;50.922;6.988;2024-01-30T04:24:50;10.40;77.50
10171;DHT22;5127;50.922;6.988;2024-01-30T04:27:18;10.40;77.50
10171;DHT22;5127;50.922;6.988;2024-01-30T04:29:45;10.40;77.50
10171;DHT22;5127;50.922;6.988;2024-01-30T04:32:12;10.40;77.50
10171;DHT22;5127;50.922;6.988;2024-01-30T04:34:39;10.40;77.50
10171;DHT22;5127;50.922;6.988;2024-01-30T04:37:06;10.40;77.60
10171;DHT22;5127;50.922;6.988;2024-01-30T04:39:35;10.40;77.50
10171;DHT22;5127;50.922;6.988;2024-01-30T04:42:04;10.40;77.40
10171;DHT22;5127;50.922;6.988;2024-01-30T04:44:31;10.40;77.40
10171;DHT22;5127;50.922;6.988;2024-01-30T04:46:58;10.40;77.40
10171;DHT22;5127;50.922;6.988;2024-01-30T04:49:27;10.30;77.30
10171;DHT22;5127;50.922;6.988;2024-01-30T04:51:55;10.20;77.10
10171;DHT22;5127;50.922;6.988;2024-01-30T04:54:22;10.30;77.20
10171;DHT22;5127;50.922;6.988;2024-01-30T04:56:51;10.30;77.20
10171;DHT22;5127;50.922;6.988;2024-01-30T04:59:19;10.30;77.20
10171;DHT22;5127;50.922;6.988;2024-01-30T05:01:46;10.30;77.20
10171;DHT22;5127;50.922;6.988;2024-01-30T05:04:14;10.20;77.20
10171;DHT22;5127;50.922;6.988;2024-01-30T05:06:41;10.20;77.20
10171;DHT22;5127;50.922;6.988;2024-01-30T05:09:08;10.20;77.30
10171;DHT22;5127;50.922;6.988;2024-01-30T05:11:37;10.20;77.20
10171;DHT22;5127;50.922;6.988;2024-01-30T05:14:06;10.10;77.10
10171;DHT22;5127;50.922;6.988;2024-01-30T05:16:34;10.10;77.10
10171;DHT22;5127;50.922;6.988;2024-01-30T05:19:01;10.10;77.20
10171;DHT22;5127;50.922;6.988;2024-01-30T05:21:29;10.10;77.20
10171;DHT22;5127;50.922;6.988;2024-01-30T05:23:56;10.10;77.30
10171;DHT22;5127;50.922;6.988;2024-01-30T05:26:23;10.10;77.30
10171;DHT22;5127;50.922;6.988;2024-01-30T05:28:50;10.00;77.20
10171;DHT22;5127;50.922;6.988;2024-01-30T05:31:19;10.00;77.20
10171;DHT22;5127;50.922;6.988;2024-01-30T05:33:47;10.00;77.20
10171;DHT22;5127;50.922;6.988;2024-01-30T05:36:14;10.00;77.30
10171;DHT22;5127;50.922;6.988;2024-01-30T05:38:41;10.00;77.30
10171;DHT22;5127;50.922;6.988;2024-01-30T05:41:09;9.90;78.40
10171;DHT22;5127;50.922;6.988;2024-01-30T05:43:36;9.90;78.50
10171;DHT22;5127;50.922;6.988;2024-01-30T05:46:03;9.90;78.50
10171;DHT22;5127;50.922;6.988;2024-01-30T05:48:32;9.90;78.50
10171;DHT22;5127;50.922;6.988;2024-01-30T05:51:01;9.90;78.50
10171;DHT22;5127;50.922;6.988;2024-01-30T05:53:29;9.90;78.60
10171;DHT22;5127;50.922;6.988;2024-01-30T05:55:57;9.90;78.70
10171;DHT22;5127;50.922;6.988;2024-01-30T05:58:24;9.90;78.70
10171;DHT22;5127;50.922;6.988;2024-01-30T06:00:51;9.90;78.70
10171;DHT22;5127;50.922;6.988;2024-01-30T06:03:18;9.90;78.80
10171;DHT22;5127;50.922;6.988;2024-01-30T06:05:47;9.90;78.80
10171;DHT22;5127;50.922;6.988;2024-01-30T06:08:14;9.90;78.70
10171;DHT22;5127;50.922;6.988;2024-01-30T06:10:41;9.90;78.80
10171;DHT22;5127;50.922;6.988;2024-01-30T06:13:08;9.90;78.80
10171;DHT22;5127;50.922;6.988;2024-01-30T06:15:36;9.90;78.80
10171;DHT22;5127;50.922;6.988;2024-01-30T06:18:03;9.90;78.80
10171;DHT22;5127;50.922;6.988;2024-01-30T06:20:31;9.90;78.80
10171;DHT22;5127;50.922;6.988;2024-01-30T06:22:59;9.90;78.80
10171;DHT22;5127;50.922;6.988;2024-01-30T06:25:26;9.90;78.80
10171;DHT22;5127;50.922;6.988;2024-01-30T06:27:54;9.90;78.80
10171;DHT22;5127;50.922;6.988;2024-01-30T06:30:21;9.90;78.80
10171;DHT22;5127;50.922;6.988;2024-01-30T06:32:48;9.90;78.90
10171;DHT22;5127;50.922;6.988;2024-01-30T06:35:15;9.90;79.00
10171;DHT22;5127;50.922;6.988;2024-01-30T06:37:43;9.90;79.10
10171;DHT22;5127;50.922;6.988;2024-01-30T06:40:13;9.90;79.10
10171;DHT22;5127;50.922;6.988;2024-01-30T06:42:40;9.90;79.10
10171;DHT22;5127;50.922;6.988;2024-01-30T06:45:08;9.90;79.20
10171;DHT22;5127;50.922;6.988;2024-01-30T06:47:36;9.90;79.30
10171;DHT22;5127;50.922;6.988;2024-01-30T06:50:03;10.00;78.40
10171;DHT22;5127;50.922;6.988;2024-01-30T06:52:31;10.00;78.30
10171;DHT22;5127;50.922;6.988;2024-01-30T06:54:58;10.00;78.40
10171;DHT22;5127;50.922;6.988;2024-01-30T06:57:26;10.00;78.40
10171;DHT22;5127;50.922;6.988;2024-01-30T06:59:56;10.00;78.40
10171;DHT22;5127;50.922;6.988;2024-01-30T07:02:23;10.10;78.50
10171;DHT22;5127;50.922;6.988;2024-01-30T07:04:50;10.10;78.60
10171;DHT22;5127;50.922;6.988;2024-01-30T07:07:18;10.10;78.50
10171;DHT22;5127;50.922;6.988;2024-01-30T07:09:45;10.20;78.60
10171;DHT22;5127;50.922;6.988;2024-01-30T07:12:15;10.20;78.50
10171;DHT22;5127;50.922;6.988;2024-01-30T07:14:44;10.20;78.50
10171;DHT22;5127;50.922;6.988;2024-01-30T07:17:11;10.20;78.40
10171;DHT22;5127;50.922;6.988;2024-01-30T07:19:38;10.30;78.50
10171;DHT22;5127;50.922;6.988;2024-01-30T07:22:05;10.30;78.40
10171;DHT22;5127;50.922;6.988;2024-01-30T07:24:33;10.30;78.30
10171;DHT22;5127;50.922;6.988;2024-01-30T07:27:01;10.30;78.30
10171;DHT22;5127;50.922;6.988;2024-01-30T07:29:28;10.30;78.20
10171;DHT22;5127;50.922;6.988;2024-01-30T07:31:57;10.40;78.30
10171;DHT22;5127;50.922;6.988;2024-01-30T07:34:24;10.40;78.30
10171;DHT22;5127;50.922;6.988;2024-01-30T07:36:51;10.40;79.10
10171;DHT22;5127;50.922;6.988;2024-01-30T07:39:18;10.40;78.40
10171;DHT22;5127;50.922;6.988;2024-01-30T07:41:45;10.40;79.20
10171;DHT22;5127;50.922;6.988;2024-01-30T07:44:13;10.40;78.40
10171;DHT22;5127;50.922;6.988;2024-01-30T07:46:40;10.40;78.40
10171;DHT22;5127;50.922;6.988;2024-01-30T07:49:08;10.40;78.50
10171;DHT22;5127;50.922;6.988;2024-01-30T07:51:36;10.40;78.40
10171;DHT22;5127;50.922;6.988;2024-01-30T07:54:03;10.50;78.60
10171;DHT22;5127;50.922;6.988;2024-01-30T07:56:31;10.50;78.80
10171;DHT22;5127;50.922;6.988;2024-01-30T07:58:58;10.50;78.90
10171;DHT22;5127;50.922;6.988;2024-01-30T08:01:25;10.60;79.00
10171;DHT22;5127;50.922;6.988;2024-01-30T08:03:53;10.60;79.00
10171;DHT22;5127;50.922;6.988;2024-01-30T08:06:22;10.60;79.00
10171;DHT22;5127;50.922;6.988;2024-01-30T08:08:49;10.70;79.00
10171;DHT22;5127;50.922;6.988;2024-01-30T08:11:20;10.80;79.20
10171;DHT22;5127;50.922;6.988;2024-01-30T08:13:51;10.80;79.00
10171;DHT22;5127;50.922;6.988;2024-01-30T08:16:18;10.80;79.00
10171;DHT22;5127;50.922;6.988;2024-01-30T08:18:45;10.80;79.00
10171;DHT22;5127;50.922;6.988;2024-01-30T08:21:13;10.90;79.00
10171;DHT22;5127;50.922;6.988;2024-01-30T08:23:42;10.90;78.90
10171;DHT22;5127;50.922;6.988;2024-01-30T08:26:09;11.00;78.90
10171;DHT22;5127;50.922;6.988;2024-01-30T08:28:36;11.00;79.00
10171;DHT22;5127;50.922;6.988;2024-01-30T08:31:04;11.00;79.10
10171;DHT22;5127;50.922;6.988;2024-01-30T08:33:31;11.10;79.10
10171;DHT22;5127;50.922;6.988;2024-01-30T08:35:58;11.10;79.00
10171;DHT22;5127;50.922;6.988;2024-01-30T08:38:26;11.20;79.10
10171;DHT22;5127;50.922;6.988;2024-01-30T08:40:55;11.20;79.00
10171;DHT22;5127;50.922;6.988;2024-01-30T08:43:22;11.30;79.00
10171;DHT22;5127;50.922;6.988;2024-01-30T08:45:49;11.30;79.00
10171;DHT22;5127;50.922;6.988;2024-01-30T08:48:17;11.30;78.90
10171;DHT22;5127;50.922;6.988;2024-01-30T08:50:44;11.30;79.00
10171;DHT22;5127;50.922;6.988;2024-01-30T08:53:12;11.40;79.00
10171;DHT22;5127;50.922;6.988;2024-01-30T08:55:39;11.40;78.90
10171;DHT22;5127;50.922;6.988;2024-01-30T08:58:07;11.40;78.80
10171;DHT22;5127;50.922;6.988;2024-01-30T09:00:35;11.50;78.90
10171;DHT22;5127;50.922;6.988;2024-01-30T09:03:02;11.50;78.90
10171;DHT22;5127;50.922;6.988;2024-01-30T09:05:29;11.50;78.90
10171;DHT22;5127;50.922;6.988;2024-01-30T09:07:57;11.60;78.90
10171;DHT22;5127;50.922;6.988;2024-01-30T09:10:24;11.60;79.00
10171;DHT22;5127;50.922;6.988;2024-01-30T09:12:51;11.60;79.00
10171;DHT22;5127;50.922;6.988;2024-01-30T09:15:20;11.70;79.00
10171;DHT22;5127;50.922;6.988;2024-01-30T09:17:47;11.70;78.80
10171;DHT22;5127;50.922;6.988;2024-01-30T09:20:14;11.70;78.90
10171;DHT22;5127;50.922;6.988;2024-01-30T09:22:41;11.80;78.90
10171;DHT22;5127;50.922;6.988;2024-01-30T09:25:09;11.80;78.90
10171;DHT22;5127;50.922;6.988;2024-01-30T09:27:36;11.90;79.00
10171;DHT22;5127;50.922;6.988;2024-01-30T09:30:04;11.90;79.00
10171;DHT22;5127;50.922;6.988;2024-01-30T09:32:33;11.90;79.00
10171;DHT22;5127;50.922;6.988;2024-01-30T09:35:00;12.00;79.00
10171;DHT22;5127;50.922;6.988;2024-01-30T09:37:28;12.00;79.20
10171;DHT22;5127;50.922;6.988;2024-01-30T09:39:55;12.10;79.40
10171;DHT22;5127;50.922;6.988;2024-01-30T09:42:27;12.20;79.30
10171;DHT22;5127;50.922;6.988;2024-01-30T09:44:56;12.20;79.00
10171;DHT22;5127;50.922;6.988;2024-01-30T09:47:23;12.30;79.30
10171;DHT22;5127;50.922;6.988;2024-01-30T09:49:52;12.30;79.10
10171;DHT22;5127;50.922;6.988;2024-01-30T09:52:19;12.40;78.90
10171;DHT22;5127;50.922;6.988;2024-01-30T09:54:48;12.40;79.10
10171;DHT22;5127;50.922;6.988;2024-01-30T09:57:16;12.50;79.00
10171;DHT22;5127;50.922;6.988;2024-01-30T09:59:43;12.50;79.20
10171;DHT22;5127;50.922;6.988;2024-01-30T10:02:10;12.60;79.10
10171;DHT22;5127;50.922;6.988;2024-01-30T10:04:38;12.70;79.10
10171;DHT22;5127;50.922;6.988;2024-01-30T10:07:07;12.70;79.10
10171;DHT22;5127;50.922;6.988;2024-01-30T10:09:37;12.70;78.80
10171;DHT22;5127;50.922;6.988;2024-01-30T10:12:06;12.80;79.00
10171;DHT22;5127;50.922;6.988;2024-01-30T10:14:33;12.80;79.10
10171;DHT22;5127;50.922;6.988;2024-01-30T10:17:01;12.90;79.30
10171;DHT22;5127;50.922;6.988;2024-01-30T10:19:29;12.90;79.20
10171;DHT22;5127;50.922;6.988;2024-01-30T10:21:56;13.00;79.40
10171;DHT22;5127;50.922;6.988;2024-01-30T10:24:26;13.00;79.40
10171;DHT22;5127;50.922;6.988;2024-01-30T10:26:55;13.10;79.10
10171;DHT22;5127;50.922;6.988;2024-01-30T10:29:22;13.20;79.30
10171;DHT22;5127;50.922;6.988;2024-01-30T10:31:58;13.30;80.00
10171;DHT22;5127;50.922;6.988;2024-01-30T10:34:25;13.30;78.50
10171;DHT22;5127;50.922;6.988;2024-01-30T10:37:00;13.40;79.00
10171;DHT22;5127;50.922;6.988;2024-01-30T10:39:32;13.40;78.70
10171;DHT22;5127;50.922;6.988;2024-01-30T10:42:05;13.40;78.60
10171;DHT22;5127;50.922;6.988;2024-01-30T10:44:37;13.50;78.60
10171;DHT22;5127;50.922;6.988;2024-01-30T10:47:09;13.50;78.00
10171;DHT22;5127;50.922;6.988;2024-01-30T10:49:38;13.50;78.30
10171;DHT22;5127;50.922;6.988;2024-01-30T10:52:08;13.50;78.50
10171;DHT22;5127;50.922;6.988;2024-01-30T10:54:37;13.60;78.40
10171;DHT22;5127;50.922;6.988;2024-01-30T10:57:06;13.60;78.50
10171;DHT22;5127;50.922;6.988;2024-01-30T10:59:34;13.60;78.90
10171;DHT22;5127;50.922;6.988;2024-01-30T11:02:03;13.60;79.00
10171;DHT22;5127;50.922;6.988;2024-01-30T11:04:36;13.70;79.00
10171;DHT22;5127;50.922;6.988;2024-01-30T11:07:13;13.80;78.60
10171;DHT22;5127;50.922;6.988;2024-01-30T11:09:48;13.80;79.10
10171;DHT22;5127;50.922;6.988;2024-01-30T11:12:15;13.90;78.20
10171;DHT22;5127;50.922;6.988;2024-01-30T11:14:43;13.90;79.10
10171;DHT22;5127;50.922;6.988;2024-01-30T11:17:10;14.00;79.00
10171;DHT22;5127;50.922;6.988;2024-01-30T11:19:38;14.00;79.00
10171;DHT22;5127;50.922;6.988;2024-01-30T11:22:06;14.10;79.20
10171;DHT22;5127;50.922;6.988;2024-01-30T11:24:39;14.10;79.10
10171;DHT22;5127;50.922;6.988;2024-01-30T11:27:09;14.20;78.50
10171;DHT22;5127;50.922;6.988;2024-01-30T11:29:50;14.30;78.90
10171;DHT22;5127;50.922;6.988;2024-01-30T11:32:23;14.30;77.90
10171;DHT22;5127;50.922;6.988;2024-01-30T11:34:51;14.40;78.30
10171;DHT22;5127;50.922;6.988;2024-01-30T11:37:21;14.40;79.10
10171;DHT22;5127;50.922;6.988;2024-01-30T11:39:51;14.50;78.50
10171;DHT22;5127;50.922;6.988;2024-01-30T11:42:19;14.50;79.00
10171;DHT22;5127;50.922;6.988;2024-01-30T11:44:48;14.50;78.60
10171;DHT22;5127;50.922;6.988;2024-01-30T11:47:16;14.60;79.00
10171;DHT22;5127;50.922;6.988;2024-01-30T11:49:43;14.60;78.70
10171;DHT22;5127;50.922;6.988;2024-01-30T11:52:11;14.70;78.90
10171;DHT22;5127;50.922;6.988;2024-01-30T11:54:40;14.80;79.00
10171;DHT22;5127;50.922;6.988;2024-01-30T11:57:07;14.80;78.60
10171;DHT22;5127;50.922;6.988;2024-01-30T11:59:36;14.90;79.00
10171;DHT22;5127;50.922;6.988;2024-01-30T12:02:03;14.90;78.70
10171;DHT22;5127;50.922;6.988;2024-01-30T12:04:30;14.90;78.70
10171;DHT22;5127;50.922;6.988;2024-01-30T12:06:58;15.00;78.90
10171;DHT22;5127;50.922;6.988;2024-01-30T12:09:25;15.00;78.70
10171;DHT22;5127;50.922;6.988;2024-01-30T12:11:53;15.10;78.90
10171;DHT22;5127;50.922;6.988;2024-01-30T12:14:22;15.10;78.80
10171;DHT22;5127;50.922;6.988;2024-01-30T12:16:52;15.10;78.30
10171;DHT22;5127;50.922;6.988;2024-01-30T12:19:22;15.20;78.40
10171;DHT22;5127;50.922;6.988;2024-01-30T12:21:59;15.20;78.00
10171;DHT22;5127;50.922;6.988;2024-01-30T12:24:27;15.20;77.30
10171;DHT22;5127;50.922;6.988;2024-01-30T12:26:57;15.20;78.30
10171;DHT22;5127;50.922;6.988;2024-01-30T12:29:24;15.30;78.20
10171;DHT22;5127;50.922;6.988;2024-01-30T12:31:54;15.30;78.30
10171;DHT22;5127;50.922;6.988;2024-01-30T12:34:25;15.40;77.80
10171;DHT22;5127;50.922;6.988;2024-01-30T12:36:52;15.40;78.00
10171;DHT22;5127;50.922;6.988;2024-01-30T12:39:19;15.40;78.20
10171;DHT22;5127;50.922;6.988;2024-01-30T12:41:47;15.40;78.10
10171;DHT22;5127;50.922;6.988;2024-01-30T12:44:15;15.40;77.90
10171;DHT22;5127;50.922;6.988;2024-01-30T12:46:42;15.40;77.90
10171;DHT22;5127;50.922;6.988;2024-01-30T12:49:11;15.50;77.90
10171;DHT22;5127;50.922;6.988;2024-01-30T12:51:38;15.50;77.80
10171;DHT22;5127;50.922;6.988;2024-01-30T12:54:06;15.50;77.90
10171;DHT22;5127;50.922;6.988;2024-01-30T12:56:33;15.50;77.80
10171;DHT22;5127;50.922;6.988;2024-01-30T12:59:00;15.50;77.90
10171;DHT22;5127;50.922;6.988;2024-01-30T13:01:28;15.50;77.90
10171;DHT22;5127;50.922;6.988;2024-01-30T13:03:55;15.60;77.80
10171;DHT22;5127;50.922;6.988;2024-01-30T13:06:25;15.60;77.60
10171;DHT22;5127;50.922;6.988;2024-01-30T13:08:53;15.60;77.20
10171;DHT22;5127;50.922;6.988;2024-01-30T13:11:20;15.60;77.50
10171;DHT22;5127;50.922;6.988;2024-01-30T13:13:47;15.60;77.50
10171;DHT22;5127;50.922;6.988;2024-01-30T13:16:15;15.60;77.60
10171;DHT22;5127;50.922;6.988;2024-01-30T13:18:43;15.60;78.40
10171;DHT22;5127;50.922;6.988;2024-01-30T13:21:10;15.60;77.50
10171;DHT22;5127;50.922;6.988;2024-01-30T13:23:39;15.60;77.50
10171;DHT22;5127;50.922;6.988;2024-01-30T13:26:06;15.60;77.20
10171;DHT22;5127;50.922;6.988;2024-01-30T13:28:33;15.60;77.30
10171;DHT22;5127;50.922;6.988;2024-01-30T13:31:00;15.60;77.30
10171;DHT22;5127;50.922;6.988;2024-01-30T13:33:28;15.60;77.10
10171;DHT22;5127;50.922;6.988;2024-01-30T13:35:55;15.60;77.10
10171;DHT22;5127;50.922;6.988;2024-01-30T13:38:22;15.60;77.20
10171;DHT22;5127;50.922;6.988;2024-01-30T13:40:51;15.70;77.50
10171;DHT22;5127;50.922;6.988;2024-01-30T13:43:18;15.70;77.20
10171;DHT22;5127;50.922;6.988;2024-01-30T13:45:45;15.70;77.50
10171;DHT22;5127;50.922;6.988;2024-01-30T13:48:13;15.70;77.50
10171;DHT22;5127;50.922;6.988;2024-01-30T13:50:40;15.70;77.50
10171;DHT22;5127;50.922;6.988;2024-01-30T13:53:07;15.80;77.60
10171;DHT22;5127;50.922;6.988;2024-01-30T13:55:34;15.80;77.60
10171;DHT22;5127;50.922;6.988;2024-01-30T13:58:03;15.80;77.60
10171;DHT22;5127;50.922;6.988;2024-01-30T14:00:30;15.80;77.40
10171;DHT22;5127;50.922;6.988;2024-01-30T14:02:58;15.90;77.70
10171;DHT22;5127;50.922;6.988;2024-01-30T14:05:25;15.90;77.40
10171;DHT22;5127;50.922;6.988;2024-01-30T14:07:53;16.00;77.40
10171;DHT22;5127;50.922;6.988;2024-01-30T14:10:20;15.90;77.30
10171;DHT22;5127;50.922;6.988;2024-01-30T14:12:48;16.00;77.50
10171;DHT22;5127;50.922;6.988;2024-01-30T14:15:16;16.00;77.50
10171;DHT22;5127;50.922;6.988;2024-01-30T14:17:44;15.90;77.30
10171;DHT22;5127;50.922;6.988;2024-01-30T14:20:14;15.90;77.40
10171;DHT22;5127;50.922;6.988;2024-01-30T14:22:42;15.90;77.20
10171;DHT22;5127;50.922;6.988;2024-01-30T14:25:10;15.90;77.30
10171;DHT22;5127;50.922;6.988;2024-01-30T14:27:38;15.90;77.40
10171;DHT22;5127;50.922;6.988;2024-01-30T14:30:06;15.90;77.50
10171;DHT22;5127;50.922;6.988;2024-01-30T14:32:38;15.90;77.40
10171;DHT22;5127;50.922;6.988;2024-01-30T14:35:07;15.90;77.20
10171;DHT22;5127;50.922;6.988;2024-01-30T14:37:35;15.90;77.40
10171;DHT22;5127;50.922;6.988;2024-01-30T14:40:02;15.80;77.40
10171;DHT22;5127;50.922;6.988;2024-01-30T14:42:30;15.80;77.40
10171;DHT22;5127;50.922;6.988;2024-01-30T14:44:58;15.90;77.50
10171;DHT22;5127;50.922;6.988;2024-01-30T14:47:25;15.80;77.40
10171;DHT22;5127;50.922;6.988;2024-01-30T14:49:55;15.80;77.40
10171;DHT22;5127;50.922;6.988;2024-01-30T14:52:22;15.80;77.20
10171;DHT22;5127;50.922;6.988;2024-01-30T14:54:49;15.80;77.40
10171;DHT22;5127;50.922;6.988;2024-01-30T14:57:16;15.70;77.60
10171;DHT22;5127;50.922;6.988;2024-01-30T14:59:44;15.70;77.50
10171;DHT22;5127;50.922;6.988;2024-01-30T15:02:11;15.70;77.40
10171;DHT22;5127;50.922;6.988;2024-01-30T15:04:38;15.70;77.60
10171;DHT22;5127;50.922;6.988;2024-01-30T15:07:07;15.70;77.60
10171;DHT22;5127;50.922;6.988;2024-01-30T15:09:34;15.80;77.50
10171;DHT22;5127;50.922;6.988;2024-01-30T15:12:02;15.70;77.60
10171;DHT22;5127;50.922;6.988;2024-01-30T15:14:30;15.70;77.70
10171;DHT22;5127;50.922;6.988;2024-01-30T15:16:57;15.70;77.80
10171;DHT22;5127;50.922;6.988;2024-01-30T15:19:24;15.70;77.80
10171;DHT22;5127;50.922;6.988;2024-01-30T15:21:51;15.70;77.80
10171;DHT22;5127;50.922;6.988;2024-01-30T15:24:20;15.70;77.70
10171;DHT22;5127;50.922;6.988;2024-01-30T15:26:50;15.70;77.50
10171;DHT22;5127;50.922;6.988;2024-01-30T15:29:18;15.70;77.70
10171;DHT22;5127;50.922;6.988;2024-01-30T15:31:47;15.80;77.80
10171;DHT22;5127;50.922;6.988;2024-01-30T15:34:14;15.80;77.70
10171;DHT22;5127;50.922;6.988;2024-01-30T15:36:41;15.70;77.50
10171;DHT22;5127;50.922;6.988;2024-01-30T15:39:09;15.80;77.60
10171;DHT22;5127;50.922;6.988;2024-01-30T15:41:38;15.80;77.50
10171;DHT22;5127;50.922;6.988;2024-01-30T15:44:06;15.70;77.10
10171;DHT22;5127;50.922;6.988;2024-01-30T15:46:33;15.70;77.30
10171;DHT22;5127;50.922;6.988;2024-01-30T15:49:00;15.70;77.30
10171;DHT22;5127;50.922;6.988;2024-01-30T15:51:30;15.70;77.30